KCDC/CDC METAR and TAF weather

Enter ICAO airport designator
Station Type Date Time Source
KCDC METAR 2018/10/22 16:17 UTC NOAA

KCDC 221617Z AUTO 30004KT 10SM -RA OVC015 08/08 A3017 RMK AO2 LTG DSNT E P0001 T00830083


Station Type Date Time Source
KCDC Decoded METAR 2018/10/22 16:17 UTC NOAA

CEDAR CITY MUN AIRPORT, UT, United States (KCDC) 37-42N 113-06W 1714M
Oct 22, 2018 - 12:17 PM EDT / 2018.10.22 1617 UTC
Wind: from the WNW (300 degrees) at 5 MPH (4 KT):0
Visibility: 10 mile(s):0
Sky conditions: overcast
Weather: light rain; Lightning observed
Precipitation last hour: 0.01 inches
Temperature: 46.9 F (8.3 C)
Dew Point: 46.9 F (8.3 C)
Relative Humidity: 100%
Pressure (altimeter): 30.17 in. Hg (1021 hPa)
ob: KCDC 221617Z AUTO 30004KT 10SM -RA OVC015 08/08 A3017 RMK AO2 LTG DSNT E P0001 T00830083
cycle: 16

Station Type Date Time Source
KCDC TAF 2018/10/22 15:36 UTC NOAA

TAF
AMD KCDC 221435Z 2215/2312 16007KT P6SM -RA SCT015 BKN025
TEMPO 2216/2218 5SM TSRA BKN015 OVC025CB
FM221900 22008KT P6SM VCSH BKN060
FM230300 16006KT P6SM SCT050 BKN100


Example: see airport list